Drake Crossing, OR

3:09 PM PDT on March 29, 2017 (GMT -0700)
Drakes Crossing | | Change Station
Active Advisory: Flood Warning

Elev 1650 ft 44.93 °N, 122.66 °W | Updated 10 minutes ago

Rain
Rain
47.1 °F
Feels Like 41 °F
N
15.0
Wind Variable Wind from South
Gusts 24.0 mph

Today
High -- | Low -- °F
--% Chance of Precip.
Yesterday
High -- | Low -- °F
Precip. -- in
Pressure 30.03 in
Visibility 4.0 miles
Clouds Few 900 ft
Mostly Cloudy 2200 ft
Overcast 3300 ft
Windchill 41 °F
Dew Point 46 °F
Humidity 97%
Rainfall 0.43 in
Snow Depth Not available.
6:56 AM 7:34 PM
Waxing Crescent, 5% visible
SPECI KSLE 292203Z 19011G19KT 4SM -RA BR FEW009 BKN022 OVC033 12/11 A3003 RMK AO2 P0000 T01220106
Pressure 30.03 in
Visibility 4.0 miles
Clouds Few 900 ft
Mostly Cloudy 2200 ft
Overcast 3300 ft
Windchill 41 °F
Dew Point 46 °F
Humidity 97%
Rainfall 0.43 in
Snow Depth Not available.
6:56 AM 7:34 PM
Waxing Crescent, 5% visible
SPECI KSLE 292203Z 19011G19KT 4SM -RA BR FEW009 BKN022 OVC033 12/11 A3003 RMK AO2 P0000 T01220106

Get Your Daily Forecast Email!

Thanks for signing up!

Be on the lookout for a verification email in your inbox.

You'll start receiving severe weather alerts in your inbox..

×

10-Day Weather Forecast

Almanac

Astronomy

Mar. 29, 2017 Rise Set
Actual Time
Civil Twilight
Nautical Twilight
Astronomical Twilight
Moon
Length of Visible Light
Length of Day
Tomorrow will be .
, % of the Moon is Illuminated

Today's Extremes

State Highs State Lows

Community

WunderPhotos

Upload Photos

1,962,540 photos uploaded!

WunderBlog® & News

Nearby

Air Quality

  Air Quality AQ Index Pollutant
Not available.

Snow Depth

Station Depth Elevation

Earthquake Activity

City Distance Mag. Time & Date
Minimum magnitude displayed is 2.5.

Earthquake Activity

City Distance Mag. Time & Date
Minimum magnitude displayed is 2.5.

Coastal Water Temperatures

Place Temperature

Stations

Nearby Weather Stations

Station Location Temp. Windchill Dew Point Humidity Wind Precip. Elev Updated Type
                   

Watches & Warnings

Flood Warning
Issued: 4:20 PM PDT Mar. 28, 2017 – National Weather Service

The Flood Warning continues for
the Columbia River at Vancouver.
* At 4 PM Tuesday the stage was... 17.3 feet.
* Flood stage is 16.0 feet.
* Forecast... this river will range from 17.3 to 17.9 feet through
Friday and remain above flood stage for the next several days.
* Impact... above 17 feet, expect flooding of some lowland access
roads, parking areas, and trails on Sauvie Island, around Vancouver
Lake, and other Parks near the river. Boaters beware of unusually
fast currents and debris in the river.


Lat... Lon 4555 12228 4567 12265 4576 12274 4576 12286 4556 12269